createdAt,value
2018-09-01T00:00:11.596Z,1018.39
2018-09-01T00:01:11.574Z,1018.36
2018-09-01T00:02:11.577Z,1018.34
2018-09-01T00:03:11.571Z,1018.31
2018-09-01T00:04:11.579Z,1018.31
2018-09-01T00:05:11.583Z,1018.35
2018-09-01T00:06:11.568Z,1018.31
2018-09-01T00:07:11.569Z,1018.30
2018-09-01T00:08:11.576Z,1018.32
2018-09-01T00:09:11.561Z,1018.29
2018-09-01T00:10:11.558Z,1018.31
2018-09-01T00:11:11.581Z,1018.28
2018-09-01T00:12:11.569Z,1018.27
2018-09-01T00:13:11.547Z,1018.28
2018-09-01T00:14:11.536Z,1018.33
2018-09-01T00:15:11.553Z,1018.29
2018-09-01T00:16:11.541Z,1018.31
2018-09-01T00:17:11.539Z,1018.34
2018-09-01T00:18:11.537Z,1018.29
2018-09-01T00:19:11.540Z,1018.34
2018-09-01T00:20:11.539Z,1018.32
2018-09-01T00:21:11.537Z,1018.34
2018-09-01T00:22:11.533Z,1018.32
2018-09-01T00:23:11.524Z,1018.35
2018-09-01T00:24:11.527Z,1018.34
2018-09-01T00:25:11.525Z,1018.35
2018-09-01T00:26:11.516Z,1018.33
2018-09-01T00:27:11.520Z,1018.33
2018-09-01T00:28:11.520Z,1018.32
2018-09-01T00:29:11.509Z,1018.27
2018-09-01T00:30:11.500Z,1018.27
2018-09-01T00:31:11.520Z,1018.29
2018-09-01T00:32:11.499Z,1018.32
2018-09-01T00:33:11.491Z,1018.33
2018-09-01T00:34:11.500Z,1018.28
2018-09-01T00:35:11.505Z,1018.31
2018-09-01T00:36:11.491Z,1018.29
2018-09-01T00:37:11.486Z,1018.33
2018-09-01T00:38:11.485Z,1018.27
2018-09-01T00:39:11.492Z,1018.29
2018-09-01T00:40:11.484Z,1018.34
2018-09-01T00:41:11.485Z,1018.28
2018-09-01T00:42:11.486Z,1018.35
2018-09-01T00:43:11.470Z,1018.32
2018-09-01T00:44:11.464Z,1018.30
2018-09-01T00:45:11.467Z,1018.31
2018-09-01T00:46:11.474Z,1018.35
2018-09-01T00:47:11.456Z,1018.35
2018-09-01T00:48:11.452Z,1018.37
2018-09-01T00:49:11.457Z,1018.38
2018-09-01T00:50:11.449Z,1018.38
2018-09-01T00:51:11.450Z,1018.35
2018-09-01T00:52:11.460Z,1018.34
2018-09-01T00:53:11.456Z,1018.36
2018-09-01T00:54:11.442Z,1018.35
2018-09-01T00:55:11.444Z,1018.36
2018-09-01T00:56:11.439Z,1018.37
2018-09-01T00:57:11.426Z,1018.39
2018-09-01T00:58:11.426Z,1018.35
2018-09-01T00:59:11.427Z,1018.36
2018-09-01T01:00:11.425Z,1018.38
2018-09-01T01:01:11.417Z,1018.38
2018-09-01T01:02:11.417Z,1018.39
2018-09-01T01:03:11.420Z,1018.43
2018-09-01T01:04:11.411Z,1018.43
2018-09-01T01:05:11.410Z,1018.43
2018-09-01T01:06:11.407Z,1018.48
2018-09-01T01:07:11.396Z,1018.45
2018-09-01T01:08:11.391Z,1018.44
2018-09-01T01:09:11.401Z,1018.47
2018-09-01T01:10:11.393Z,1018.46
2018-09-01T01:11:11.384Z,1018.44
2018-09-01T01:12:11.395Z,1018.46
2018-09-01T01:13:11.392Z,1018.48
2018-09-01T01:14:11.375Z,1018.51
2018-09-01T01:15:11.384Z,1018.51
2018-09-01T01:16:11.395Z,1018.47
2018-09-01T01:17:11.368Z,1018.47
2018-09-01T01:18:11.365Z,1018.43
2018-09-01T01:19:11.380Z,1018.46
2018-09-01T01:20:11.375Z,1018.46
2018-09-01T01:21:11.346Z,1018.41
2018-09-01T01:22:11.363Z,1018.44
2018-09-01T01:23:11.350Z,1018.40
2018-09-01T01:24:11.350Z,1018.46
2018-09-01T01:25:11.346Z,1018.46
2018-09-01T01:26:11.353Z,1018.41
2018-09-01T01:27:11.337Z,1018.43
2018-09-01T01:28:11.366Z,1018.39
2018-09-01T01:29:11.338Z,1018.40
2018-09-01T01:30:11.321Z,1018.45
2018-09-01T01:31:11.324Z,1018.44
2018-09-01T01:32:11.328Z,1018.45
2018-09-01T01:33:11.318Z,1018.48
2018-09-01T01:34:11.317Z,1018.42
2018-09-01T01:35:11.315Z,1018.45
2018-09-01T01:36:11.300Z,1018.47
2018-09-01T01:37:11.326Z,1018.50
2018-09-01T01:38:11.309Z,1018.47
2018-09-01T01:39:11.292Z,1018.49
2018-09-01T01:40:11.294Z,1018.52
2018-09-01T01:41:11.300Z,1018.51
2018-09-01T01:42:11.280Z,1018.50
2018-09-01T01:43:11.279Z,1018.49
2018-09-01T01:44:11.290Z,1018.51
2018-09-01T01:45:11.281Z,1018.49
2018-09-01T01:46:11.281Z,1018.46
2018-09-01T01:47:11.284Z,1018.48
2018-09-01T01:48:11.261Z,1018.47
2018-09-01T01:49:11.261Z,1018.49
2018-09-01T01:50:11.269Z,1018.46
2018-09-01T01:51:11.252Z,1018.45
2018-09-01T01:52:11.254Z,1018.49
2018-09-01T01:53:11.262Z,1018.44
2018-09-01T01:54:11.268Z,1018.53
2018-09-01T01:55:11.247Z,1018.52
2018-09-01T01:56:11.250Z,1018.51
2018-09-01T01:57:11.238Z,1018.52
2018-09-01T01:58:11.240Z,1018.50
2018-09-01T01:59:11.236Z,1018.53
2018-09-01T02:00:11.239Z,1018.58
2018-09-01T02:01:11.226Z,1018.60
2018-09-01T02:02:11.227Z,1018.61
2018-09-01T02:03:11.223Z,1018.64
2018-09-01T02:04:11.218Z,1018.61
2018-09-01T02:05:11.208Z,1018.60
2018-09-01T02:06:11.204Z,1018.62
2018-09-01T02:07:11.204Z,1018.59
2018-09-01T02:08:11.215Z,1018.55
2018-09-01T02:09:11.200Z,1018.59
2018-09-01T02:10:11.201Z,1018.60
2018-09-01T02:11:11.195Z,1018.58
2018-09-01T02:12:11.183Z,1018.55
2018-09-01T02:13:11.183Z,1018.56
2018-09-01T02:14:11.173Z,1018.53
2018-09-01T02:15:11.183Z,1018.54
2018-09-01T02:16:11.184Z,1018.57
2018-09-01T02:17:11.159Z,1018.57
2018-09-01T02:18:11.163Z,1018.60
2018-09-01T02:19:11.183Z,1018.61
2018-09-01T02:20:11.154Z,1018.64
2018-09-01T02:21:11.153Z,1018.64
2018-09-01T02:22:11.146Z,1018.61
2018-09-01T02:23:11.146Z,1018.67
2018-09-01T02:24:11.150Z,1018.67
2018-09-01T02:25:11.137Z,1018.64
2018-09-01T02:26:11.137Z,1018.65
2018-09-01T02:27:11.136Z,1018.66
2018-09-01T02:28:11.142Z,1018.65
2018-09-01T02:29:11.129Z,1018.64
2018-09-01T02:30:11.120Z,1018.65
2018-09-01T02:31:11.121Z,1018.66
2018-09-01T02:32:11.108Z,1018.65
2018-09-01T02:33:11.107Z,1018.63
2018-09-01T02:34:11.107Z,1018.60
2018-09-01T02:35:11.105Z,1018.62
2018-09-01T02:36:11.097Z,1018.63
2018-09-01T02:37:11.106Z,1018.66
2018-09-01T02:38:11.100Z,1018.65
2018-09-01T02:39:11.100Z,1018.67
2018-09-01T02:40:11.092Z,1018.67
2018-09-01T02:41:11.076Z,1018.67
2018-09-01T02:42:11.071Z,1018.68
2018-09-01T02:43:11.080Z,1018.64
2018-09-01T02:44:11.061Z,1018.68
2018-09-01T02:45:11.068Z,1018.64
2018-09-01T02:46:11.067Z,1018.63
2018-09-01T02:47:11.056Z,1018.66
2018-09-01T02:48:11.055Z,1018.66
2018-09-01T02:49:11.046Z,1018.67
2018-09-01T02:50:11.050Z,1018.67
2018-09-01T02:51:11.049Z,1018.67
2018-09-01T02:52:11.038Z,1018.69
2018-09-01T02:53:11.040Z,1018.68
2018-09-01T02:54:11.038Z,1018.64
2018-09-01T02:55:11.029Z,1018.67
2018-09-01T02:56:11.027Z,1018.68
2018-09-01T02:57:11.027Z,1018.64
2018-09-01T02:58:11.016Z,1018.57
2018-09-01T02:59:11.013Z,1018.65
2018-09-01T03:00:11.005Z,1018.61
2018-09-01T03:01:10.996Z,1018.59
2018-09-01T03:02:11.034Z,1018.58
2018-09-01T03:03:10.992Z,1018.59
2018-09-01T03:04:10.988Z,1018.54
2018-09-01T03:05:10.986Z,1018.53
2018-09-01T03:06:10.987Z,1018.56
2018-09-01T03:07:10.988Z,1018.59
2018-09-01T03:08:10.980Z,1018.61
2018-09-01T03:09:10.982Z,1018.57
2018-09-01T03:10:10.978Z,1018.56
2018-09-01T03:11:10.979Z,1018.57
2018-09-01T03:12:10.964Z,1018.57
2018-09-01T03:13:10.952Z,1018.61
2018-09-01T03:14:10.954Z,1018.62
2018-09-01T03:15:10.955Z,1018.60
2018-09-01T03:16:10.951Z,1018.64
2018-09-01T03:17:10.944Z,1018.60
2018-09-01T03:18:10.939Z,1018.59
2018-09-01T03:19:10.940Z,1018.61
2018-09-01T03:20:10.936Z,1018.59
2018-09-01T03:21:10.930Z,1018.59
2018-09-01T03:22:10.929Z,1018.62
2018-09-01T03:23:10.934Z,1018.59
2018-09-01T03:24:10.912Z,1018.60
2018-09-01T03:25:10.919Z,1018.66
2018-09-01T03:26:10.919Z,1018.68
2018-09-01T03:27:10.910Z,1018.64
2018-09-01T03:28:10.908Z,1018.69
2018-09-01T03:29:10.890Z,1018.63
2018-09-01T03:30:10.901Z,1018.67
2018-09-01T03:31:10.899Z,1018.70
2018-09-01T03:32:10.896Z,1018.67
2018-09-01T03:33:10.883Z,1018.71
2018-09-01T03:34:10.880Z,1018.63
2018-09-01T03:35:10.878Z,1018.72
2018-09-01T03:36:10.869Z,1018.65
2018-09-01T03:37:10.867Z,1018.65
2018-09-01T03:38:10.870Z,1018.66
2018-09-01T03:39:10.866Z,1018.64
2018-09-01T03:40:10.857Z,1018.66
2018-09-01T03:41:10.846Z,1018.65
2018-09-01T03:42:10.851Z,1018.63
2018-09-01T03:43:10.851Z,1018.65
2018-09-01T03:44:10.844Z,1018.65
2018-09-01T03:45:10.841Z,1018.72
2018-09-01T03:46:10.836Z,1018.70
2018-09-01T03:47:10.834Z,1018.67
2018-09-01T03:48:10.830Z,1018.65
2018-09-01T03:49:10.819Z,1018.70
2018-09-01T03:50:10.813Z,1018.71
2018-09-01T03:51:10.811Z,1018.70
2018-09-01T03:52:10.820Z,1018.62
2018-09-01T03:53:10.805Z,1018.62
2018-09-01T03:54:10.795Z,1018.63
2018-09-01T03:55:10.803Z,1018.64
2018-09-01T03:56:10.794Z,1018.66
2018-09-01T03:57:10.796Z,1018.72
2018-09-01T03:58:10.776Z,1018.70
2018-09-01T03:59:10.795Z,1018.68
2018-09-01T04:00:10.777Z,1018.66
2018-09-01T04:01:10.768Z,1018.66
2018-09-01T04:02:10.769Z,1018.72
2018-09-01T04:03:10.750Z,1018.71
2018-09-01T04:04:10.754Z,1018.67
2018-09-01T04:05:10.757Z,1018.68
2018-09-01T04:06:10.755Z,1018.67
2018-09-01T04:07:10.738Z,1018.72
2018-09-01T04:08:10.734Z,1018.69
2018-09-01T04:09:10.755Z,1018.70
2018-09-01T04:10:10.729Z,1018.73
2018-09-01T04:11:10.732Z,1018.72
2018-09-01T04:12:10.735Z,1018.74
2018-09-01T04:13:10.721Z,1018.72
2018-09-01T04:14:10.722Z,1018.69
2018-09-01T04:15:10.721Z,1018.74
2018-09-01T04:16:10.712Z,1018.70
2018-09-01T04:17:10.701Z,1018.72
2018-09-01T04:18:10.696Z,1018.70
2018-09-01T04:19:10.701Z,1018.79
2018-09-01T04:20:10.698Z,1018.76
2018-09-01T04:21:10.686Z,1018.74
2018-09-01T04:22:10.696Z,1018.74
2018-09-01T04:23:10.676Z,1018.78
2018-09-01T04:24:10.677Z,1018.77
2018-09-01T04:25:10.665Z,1018.79
2018-09-01T04:26:10.669Z,1018.84
2018-09-01T04:27:10.671Z,1018.86
2018-09-01T04:28:10.661Z,1018.88
2018-09-01T04:29:10.648Z,1018.88
2018-09-01T04:30:10.644Z,1018.84
2018-09-01T04:31:10.653Z,1018.86
2018-09-01T04:32:10.658Z,1018.84
2018-09-01T04:33:10.641Z,1018.87
2018-09-01T04:34:10.632Z,1018.87
2018-09-01T04:35:10.623Z,1018.87
2018-09-01T04:36:10.627Z,1018.85
2018-09-01T04:37:10.613Z,1018.86
2018-09-01T04:38:10.619Z,1018.87
2018-09-01T04:39:10.626Z,1018.89
2018-09-01T04:40:10.605Z,1018.88
2018-09-01T04:41:10.609Z,1018.90
2018-09-01T04:42:10.593Z,1018.94
2018-09-01T04:43:10.596Z,1018.94
2018-09-01T04:44:10.588Z,1018.92
2018-09-01T04:45:10.592Z,1018.95
2018-09-01T04:46:10.587Z,1018.96
2018-09-01T04:47:10.593Z,1018.98
2018-09-01T04:48:10.581Z,1018.94
2018-09-01T04:49:10.570Z,1018.95
2018-09-01T04:50:10.565Z,1018.93
2018-09-01T04:51:10.558Z,1018.95
2018-09-01T04:52:10.559Z,1018.93
2018-09-01T04:53:10.560Z,1018.95
2018-09-01T04:54:10.547Z,1018.99
2018-09-01T04:55:10.553Z,1018.99
2018-09-01T04:56:10.536Z,1018.98
2018-09-01T04:57:10.543Z,1018.97
2018-09-01T04:58:10.542Z,1019.01
2018-09-01T04:59:10.524Z,1019.00
2018-09-01T05:00:10.538Z,1019.01
2018-09-01T05:01:10.680Z,1019.00
2018-09-01T05:02:10.517Z,1019.03
2018-09-01T05:03:10.503Z,1019.05
2018-09-01T05:04:10.507Z,1019.00
2018-09-01T05:05:10.512Z,1019.03
2018-09-01T05:06:10.499Z,1019.04
2018-09-01T05:07:10.505Z,1019.04
2018-09-01T05:08:10.488Z,1019.08
2018-09-01T05:09:10.489Z,1019.12
2018-09-01T05:10:10.481Z,1019.15
2018-09-01T05:11:10.489Z,1019.15
2018-09-01T05:12:10.484Z,1019.16
2018-09-01T05:13:10.468Z,1019.15
2018-09-01T05:14:10.467Z,1019.17
2018-09-01T05:15:10.464Z,1019.21
2018-09-01T05:16:10.451Z,1019.18
2018-09-01T05:17:10.451Z,1019.19
2018-09-01T05:18:10.451Z,1019.20
2018-09-01T05:19:10.447Z,1019.22
2018-09-01T05:20:10.429Z,1019.21
2018-09-01T05:21:10.430Z,1019.23
2018-09-01T05:22:10.427Z,1019.22
2018-09-01T05:23:10.433Z,1019.26
2018-09-01T05:24:10.416Z,1019.24
2018-09-01T05:25:10.414Z,1019.29
2018-09-01T05:26:10.416Z,1019.28
2018-09-01T05:27:10.408Z,1019.33
2018-09-01T05:28:10.407Z,1019.30
2018-09-01T05:29:10.394Z,1019.32
2018-09-01T05:30:10.394Z,1019.34
2018-09-01T05:31:10.387Z,1019.34
2018-09-01T05:32:10.392Z,1019.36
2018-09-01T05:33:10.376Z,1019.36
2018-09-01T05:34:10.379Z,1019.38
2018-09-01T05:35:10.374Z,1019.41
2018-09-01T05:36:10.373Z,1019.36
2018-09-01T05:37:10.371Z,1019.42
2018-09-01T05:38:10.356Z,1019.47
2018-09-01T05:39:10.363Z,1019.49
2018-09-01T05:40:10.352Z,1019.47
2018-09-01T05:41:10.349Z,1019.50
2018-09-01T05:42:10.344Z,1019.52
2018-09-01T05:43:10.333Z,1019.52
2018-09-01T05:44:10.327Z,1019.54
2018-09-01T05:45:10.325Z,1019.57
2018-09-01T05:46:10.259Z,1019.58
2018-09-01T05:47:10.291Z,1019.57
2018-09-01T05:48:10.248Z,1019.59
2018-09-01T05:49:10.246Z,1019.59
2018-09-01T05:50:10.229Z,1019.60
2018-09-01T05:51:10.236Z,1019.55
2018-09-01T05:52:10.237Z,1019.58
2018-09-01T05:53:10.224Z,1019.60
2018-09-01T05:54:10.221Z,1019.60
2018-09-01T05:55:10.232Z,1019.58
2018-09-01T05:56:10.219Z,1019.59
2018-09-01T05:57:10.282Z,1019.63
2018-09-01T05:58:10.206Z,1019.63
2018-09-01T05:59:10.263Z,1019.65
2018-09-01T06:00:10.195Z,1019.66
2018-09-01T06:01:10.256Z,1019.70
2018-09-01T06:02:10.180Z,1019.71
2018-09-01T06:03:10.193Z,1019.72
2018-09-01T06:04:10.185Z,1019.71
2018-09-01T06:05:10.179Z,1019.77
2018-09-01T06:06:10.328Z,1019.78
2018-09-01T06:07:10.176Z,1019.84
2018-09-01T06:08:10.230Z,1019.81
2018-09-01T06:09:10.170Z,1019.83
2018-09-01T06:10:10.160Z,1019.82
2018-09-01T06:11:10.166Z,1019.85
2018-09-01T06:12:10.220Z,1019.86
2018-09-01T06:13:10.138Z,1019.89
2018-09-01T06:14:10.137Z,1019.89
2018-09-01T06:15:10.213Z,1019.90
2018-09-01T06:16:10.141Z,1019.89
2018-09-01T06:17:10.105Z,1019.86
2018-09-01T06:18:10.187Z,1019.89
2018-09-01T06:19:10.151Z,1019.87
2018-09-01T06:20:10.143Z,1019.86
2018-09-01T06:21:10.121Z,1019.84
2018-09-01T06:22:10.129Z,1019.88
2018-09-01T06:23:10.108Z,1019.88
2018-09-01T06:24:10.111Z,1019.91
2018-09-01T06:25:10.105Z,1019.93
2018-09-01T06:26:10.168Z,1019.92
2018-09-01T06:27:10.162Z,1019.94
2018-09-01T06:28:10.085Z,1019.94
2018-09-01T06:29:10.150Z,1019.95
2018-09-01T06:30:10.126Z,1019.96
2018-09-01T06:31:10.070Z,1020.03
2018-09-01T06:32:10.062Z,1020.02
2018-09-01T06:33:10.070Z,1020.02
2018-09-01T06:34:10.055Z,1020.01
2018-09-01T06:35:10.109Z,1020.03
2018-09-01T06:36:10.047Z,1020.01
2018-09-01T06:37:10.067Z,1019.95
2018-09-01T06:38:10.112Z,1019.94
2018-09-01T06:39:10.045Z,1019.96
2018-09-01T06:40:10.032Z,1019.98
2018-09-01T06:41:10.037Z,1019.99
2018-09-01T06:42:10.103Z,1019.98
2018-09-01T06:43:10.085Z,1019.99
2018-09-01T06:44:10.050Z,1020.00
2018-09-01T06:45:10.067Z,1020.02
2018-09-01T06:46:10.077Z,1020.06
2018-09-01T06:47:10.084Z,1020.05
2018-09-01T06:48:10.066Z,1020.08
2018-09-01T06:49:09.987Z,1020.06
2018-09-01T06:50:10.008Z,1020.09
2018-09-01T06:51:09.988Z,1020.09
2018-09-01T06:52:10.062Z,1020.10
2018-09-01T06:53:10.050Z,1020.09
2018-09-01T06:54:10.049Z,1020.11
2018-09-01T06:55:10.064Z,1020.13
2018-09-01T06:56:10.037Z,1020.20
2018-09-01T06:57:10.047Z,1020.19
2018-09-01T06:58:09.973Z,1020.16
2018-09-01T06:59:10.027Z,1020.20
2018-09-01T07:00:10.035Z,1020.15
2018-09-01T07:01:09.967Z,1020.18
2018-09-01T07:02:10.014Z,1020.16
2018-09-01T07:03:10.013Z,1020.17
2018-09-01T07:04:09.944Z,1020.20
2018-09-01T07:05:09.996Z,1020.24
2018-09-01T07:06:09.922Z,1020.23
2018-09-01T07:07:09.931Z,1020.27
2018-09-01T07:08:10.914Z,1020.26
2018-09-01T07:09:09.935Z,1020.30
2018-09-01T07:10:09.922Z,1020.27
2018-09-01T07:11:09.977Z,1020.25
2018-09-01T07:12:09.919Z,1020.26
2018-09-01T07:13:09.924Z,1020.25
2018-09-01T07:14:09.927Z,1020.25
2018-09-01T07:15:09.897Z,1020.27
2018-09-01T07:16:09.901Z,1020.24
2018-09-01T07:17:09.929Z,1020.26
2018-09-01T07:18:09.880Z,1020.28
2018-09-01T07:19:09.898Z,1020.27
2018-09-01T07:20:09.877Z,1020.32
2018-09-01T07:21:09.879Z,1020.29
2018-09-01T07:22:09.888Z,1020.30
2018-09-01T07:23:09.867Z,1020.32
2018-09-01T07:24:09.877Z,1020.33
2018-09-01T07:25:09.877Z,1020.35
2018-09-01T07:26:09.857Z,1020.30
2018-09-01T07:27:09.857Z,1020.34
2018-09-01T07:28:09.858Z,1020.35
2018-09-01T07:29:09.877Z,1020.29
2018-09-01T07:30:09.986Z,1020.34
2018-09-01T07:31:10.120Z,1020.28
2018-09-01T07:32:09.847Z,1020.31
2018-09-01T07:33:09.839Z,1020.32
2018-09-01T07:34:09.844Z,1020.34
2018-09-01T07:35:09.840Z,1020.34
2018-09-01T07:36:09.850Z,1020.32
2018-09-01T07:37:09.917Z,1020.41
2018-09-01T07:38:09.820Z,1020.39
2018-09-01T07:39:09.823Z,1020.39
2018-09-01T07:40:09.828Z,1020.44
2018-09-01T07:41:09.800Z,1020.47
2018-09-01T07:42:09.839Z,1020.42
2018-09-01T07:43:09.983Z,1020.43
2018-09-01T07:44:09.818Z,1020.44
2018-09-01T07:45:09.817Z,1020.49
2018-09-01T07:46:09.798Z,1020.42
2018-09-01T07:47:09.794Z,1020.42
2018-09-01T07:48:09.797Z,1020.45
2018-09-01T07:49:09.856Z,1020.44
2018-09-01T07:50:09.836Z,1020.42
2018-09-01T07:51:09.849Z,1020.46
2018-09-01T07:52:09.860Z,1020.47
2018-09-01T07:53:09.781Z,1020.47
2018-09-01T07:54:09.835Z,1020.51
2018-09-01T07:55:10.240Z,1020.48
2018-09-01T07:56:09.898Z,1020.47
2018-09-01T07:57:09.831Z,1020.51
2018-09-01T07:58:09.832Z,1020.48
2018-09-01T07:59:09.770Z,1020.52
2018-09-01T08:00:09.755Z,1020.53
2018-09-01T08:01:09.780Z,1020.51
2018-09-01T08:02:09.821Z,1020.50
2018-09-01T08:03:09.823Z,1020.57
2018-09-01T08:04:09.826Z,1020.57
2018-09-01T08:05:09.816Z,1020.55
2018-09-01T08:06:09.806Z,1020.59
2018-09-01T08:07:09.814Z,1020.62
2018-09-01T08:08:09.727Z,1020.62
2018-09-01T08:09:09.739Z,1020.60
2018-09-01T08:10:09.721Z,1020.61
2018-09-01T08:11:09.727Z,1020.61
2018-09-01T08:12:09.728Z,1020.64
2018-09-01T08:13:09.743Z,1020.59
2018-09-01T08:14:09.819Z,1020.60
2018-09-01T08:15:09.729Z,1020.59
2018-09-01T08:16:09.728Z,1020.61
2018-09-01T08:17:09.719Z,1020.64
2018-09-01T08:18:09.724Z,1020.65
2018-09-01T08:19:09.698Z,1020.61
2018-09-01T08:20:09.693Z,1020.59
2018-09-01T08:21:09.711Z,1020.61
2018-09-01T08:22:09.706Z,1020.57
2018-09-01T08:23:09.682Z,1020.57
2018-09-01T08:24:09.687Z,1020.57
2018-09-01T08:25:09.689Z,1020.58
2018-09-01T08:26:09.716Z,1020.60
2018-09-01T08:27:09.689Z,1020.59
2018-09-01T08:28:09.752Z,1020.60
2018-09-01T08:29:09.683Z,1020.63
2018-09-01T08:30:09.694Z,1020.65
2018-09-01T08:31:09.690Z,1020.63
2018-09-01T08:32:09.669Z,1020.62
2018-09-01T08:33:09.664Z,1020.62
2018-09-01T08:34:09.673Z,1020.65
2018-09-01T08:35:09.672Z,1020.66
2018-09-01T08:36:09.672Z,1020.68
2018-09-01T08:37:09.667Z,1020.64
2018-09-01T08:38:09.666Z,1020.65
2018-09-01T08:39:09.671Z,1020.67
2018-09-01T08:40:09.737Z,1020.67
2018-09-01T08:41:09.732Z,1020.69
2018-09-01T08:42:09.720Z,1020.67
2018-09-01T08:43:09.712Z,1020.66
2018-09-01T08:44:09.643Z,1020.65
2018-09-01T08:45:09.736Z,1020.72
2018-09-01T08:46:09.645Z,1020.73
2018-09-01T08:47:09.715Z,1020.66
2018-09-01T08:48:09.627Z,1020.64
2018-09-01T08:49:09.630Z,1020.59
2018-09-01T08:50:09.642Z,1020.66
2018-09-01T08:51:09.637Z,1020.64
2018-09-01T08:52:09.632Z,1020.66
2018-09-01T08:53:09.626Z,1020.65
2018-09-01T08:54:09.688Z,1020.70
2018-09-01T08:55:09.614Z,1020.75
2018-09-01T08:56:09.607Z,1020.73
2018-09-01T08:57:09.636Z,1020.72
2018-09-01T08:58:09.606Z,1020.72
2018-09-01T08:59:09.649Z,1020.76
2018-09-01T09:00:09.688Z,1020.72
2018-09-01T09:01:09.607Z,1020.72
2018-09-01T09:02:09.617Z,1020.78
2018-09-01T09:03:09.608Z,1020.78
2018-09-01T09:04:09.600Z,1020.73
2018-09-01T09:05:09.617Z,1020.79
2018-09-01T09:06:09.602Z,1020.79
2018-09-01T09:07:09.608Z,1020.77
2018-09-01T09:08:09.593Z,1020.76
2018-09-01T09:09:09.568Z,1020.78
2018-09-01T09:10:09.614Z,1020.77
2018-09-01T09:11:09.595Z,1020.76
2018-09-01T09:12:09.621Z,1020.79
2018-09-01T09:13:09.597Z,1020.69
2018-09-01T09:14:09.596Z,1020.69
2018-09-01T09:15:09.579Z,1020.72
2018-09-01T09:16:09.585Z,1020.68
2018-09-01T09:17:09.581Z,1020.75
2018-09-01T09:18:09.648Z,1020.75
2018-09-01T09:19:09.644Z,1020.83
2018-09-01T09:20:09.646Z,1020.75
2018-09-01T09:21:09.577Z,1020.73
2018-09-01T09:22:09.574Z,1020.76
2018-09-01T09:23:09.576Z,1020.73
2018-09-01T09:24:09.564Z,1020.71
2018-09-01T09:25:09.561Z,1020.68
2018-09-01T09:26:09.581Z,1020.56
2018-09-01T09:27:09.561Z,1020.71
2018-09-01T09:28:09.556Z,1020.72
2018-09-01T09:29:09.562Z,1020.73
2018-09-01T09:30:09.557Z,1020.76
2018-09-01T09:31:09.565Z,1020.75
2018-09-01T09:32:09.630Z,1020.72
2018-09-01T09:33:09.678Z,1020.81
2018-09-01T09:34:09.607Z,1020.81
2018-09-01T09:35:09.535Z,1020.81
2018-09-01T09:36:09.673Z,1020.79
2018-09-01T09:37:09.596Z,1020.84
2018-09-01T09:38:09.590Z,1020.84
2018-09-01T09:39:09.619Z,1020.79
2018-09-01T09:40:09.523Z,1020.80
2018-09-01T09:41:09.597Z,1020.75
2018-09-01T09:42:09.602Z,1020.77
2018-09-01T09:43:09.585Z,1020.82
2018-09-01T09:44:09.526Z,1020.90
2018-09-01T09:45:09.601Z,1020.88
2018-09-01T09:46:09.593Z,1020.89
2018-09-01T09:47:09.518Z,1020.91
2018-09-01T09:48:09.595Z,1020.92
2018-09-01T09:49:09.591Z,1020.94
2018-09-01T09:50:09.602Z,1020.95
2018-09-01T09:51:09.589Z,1020.92
2018-09-01T09:52:09.581Z,1020.90
2018-09-01T09:53:09.614Z,1020.92
2018-09-01T09:54:09.576Z,1020.90
2018-09-01T09:55:09.578Z,1020.89
2018-09-01T09:56:09.586Z,1020.90
2018-09-01T09:57:09.585Z,1020.93
2018-09-01T09:58:09.582Z,1020.93
2018-09-01T09:59:09.574Z,1020.91
2018-09-01T10:00:09.568Z,1020.86
2018-09-01T10:01:09.648Z,1020.87
2018-09-01T10:02:09.575Z,1020.92
2018-09-01T10:03:09.571Z,1020.90
2018-09-01T10:04:09.567Z,1020.95
2018-09-01T10:05:09.527Z,1020.96
2018-09-01T10:06:09.499Z,1020.97
2018-09-01T10:07:09.497Z,1020.95
2018-09-01T10:08:09.503Z,1020.93
2018-09-01T10:09:09.496Z,1020.96
2018-09-01T10:10:09.571Z,1020.93
2018-09-01T10:11:09.517Z,1020.91
2018-09-01T10:12:09.514Z,1020.90
2018-09-01T10:13:09.483Z,1020.81
2018-09-01T10:14:09.555Z,1020.89
2018-09-01T10:15:09.556Z,1020.91
2018-09-01T10:16:09.478Z,1020.91
2018-09-01T10:17:09.559Z,1020.86
2018-09-01T10:18:09.560Z,1020.86
2018-09-01T10:19:09.637Z,1020.86
2018-09-01T10:20:09.912Z,1020.86
2018-09-01T10:21:09.475Z,1020.90
2018-09-01T10:22:09.470Z,1020.88
2018-09-01T10:23:09.481Z,1020.89
2018-09-01T10:24:10.556Z,1020.90
2018-09-01T10:25:09.491Z,1020.88
2018-09-01T10:26:09.529Z,1020.83
2018-09-01T10:27:09.623Z,1020.85
2018-09-01T10:28:09.621Z,1020.92
2018-09-01T10:29:09.568Z,1020.89
2018-09-01T10:30:09.627Z,1020.86
2018-09-01T10:31:09.816Z,1020.79
2018-09-01T10:32:09.502Z,1020.73
2018-09-01T10:33:09.600Z,1020.73
2018-09-01T10:34:09.622Z,1020.73
2018-09-01T10:35:09.477Z,1020.74
2018-09-01T10:36:09.548Z,1020.75
2018-09-01T10:37:09.478Z,1020.79
2018-09-01T10:38:09.461Z,1020.75
2018-09-01T10:39:09.454Z,1020.79
2018-09-01T10:40:09.536Z,1020.76
2018-09-01T10:41:09.460Z,1020.77
2018-09-01T10:42:09.455Z,1020.78
2018-09-01T10:43:09.466Z,1020.79
2018-09-01T10:44:09.466Z,1020.81
2018-09-01T10:45:09.456Z,1020.77
2018-09-01T10:46:09.468Z,1020.75
2018-09-01T10:47:09.466Z,1020.78
2018-09-01T10:48:09.470Z,1020.89
2018-09-01T10:49:09.452Z,1020.88
2018-09-01T10:50:09.460Z,1020.85
2018-09-01T10:51:09.466Z,1020.81
2018-09-01T10:52:09.471Z,1020.85
2018-09-01T10:53:09.725Z,1020.81
2018-09-01T10:54:09.472Z,1020.86
2018-09-01T10:55:09.459Z,1020.80
2018-09-01T10:56:09.469Z,1020.80
2018-09-01T10:57:09.461Z,1020.76
2018-09-01T10:58:09.472Z,1020.78
2018-09-01T10:59:09.570Z,1020.78
2018-09-01T11:00:09.463Z,1020.72
2018-09-01T11:01:09.474Z,1020.71
2018-09-01T11:02:09.470Z,1020.70
2018-09-01T11:03:09.462Z,1020.66
2018-09-01T11:04:09.458Z,1020.66
2018-09-01T11:05:09.583Z,1020.66
2018-09-01T11:06:09.469Z,1020.63
2018-09-01T11:07:09.480Z,1020.63
2018-09-01T11:08:09.460Z,1020.64
2018-09-01T11:09:09.466Z,1020.66
2018-09-01T11:10:09.465Z,1020.67
2018-09-01T11:11:09.493Z,1020.62
2018-09-01T11:12:09.464Z,1020.68
2018-09-01T11:13:09.459Z,1020.65
2018-09-01T11:14:09.934Z,1020.67
2018-09-01T11:15:09.475Z,1020.66
2018-09-01T11:16:34.934Z,1020.64
2018-09-01T11:17:34.926Z,1020.64
2018-09-01T11:19:29.599Z,1020.60
2018-09-01T11:20:29.575Z,1020.58
2018-09-01T11:22:24.304Z,1020.59
2018-09-01T11:23:24.274Z,1020.55
2018-09-01T11:25:18.445Z,1020.58
2018-09-01T11:26:18.447Z,1020.60
2018-09-01T11:28:12.779Z,1020.61
2018-09-01T11:29:12.624Z,1020.60
2018-09-01T11:31:07.299Z,1020.51
2018-09-01T11:32:07.319Z,1020.52
2018-09-01T11:34:02.057Z,1020.55
2018-09-01T11:35:01.983Z,1020.57
2018-09-01T11:36:56.723Z,1020.68
2018-09-01T11:37:56.649Z,1020.71
2018-09-01T11:39:50.932Z,1020.85
2018-09-01T11:40:50.827Z,1020.87
2018-09-01T11:42:45.241Z,1020.92
2018-09-01T11:43:45.013Z,1020.83
2018-09-01T11:45:39.258Z,1020.61
2018-09-01T11:46:39.212Z,1020.56
2018-09-01T11:48:33.440Z,1020.61
2018-09-01T11:49:33.403Z,1020.56
2018-09-01T11:51:28.108Z,1020.59
2018-09-01T11:52:28.071Z,1020.64
2018-09-01T11:54:22.308Z,1020.69
2018-09-01T11:55:22.263Z,1020.62
2018-09-01T11:57:17.023Z,1020.62
2018-09-01T11:58:16.944Z,1020.54
2018-09-01T12:00:11.145Z,1020.58
2018-09-01T12:01:11.286Z,1020.51
2018-09-01T12:03:05.883Z,1020.56
2018-09-01T12:04:05.823Z,1020.54
2018-09-01T12:06:00.006Z,1020.56
2018-09-01T12:07:00.011Z,1020.53
2018-09-01T12:08:54.278Z,1020.57
2018-09-01T12:09:54.214Z,1020.56
2018-09-01T12:11:48.388Z,1020.57
2018-09-01T12:12:48.377Z,1020.55
2018-09-01T12:14:42.626Z,1020.52
2018-09-01T12:15:42.647Z,1020.52
2018-09-01T12:17:36.746Z,1020.51
2018-09-01T12:18:36.757Z,1020.48
2018-09-01T12:20:30.980Z,1020.43
2018-09-01T12:21:30.935Z,1020.46
2018-09-01T12:23:25.624Z,1020.82
2018-09-01T12:24:25.634Z,1020.74
2018-09-01T12:26:19.846Z,1020.84
2018-09-01T12:27:19.794Z,1020.80